G7JIF Weather Reports


Display with metric or nautical units.
time (UTC)temp
F
wind
direction
speed
MPH
gust
MPH
rain 1hr
in
rain 24hr
in
rain mn
in
humidity
%
barometer
mb
20190922141708 65 135 7.0 6.0 0.00 0.00 0.00 75 999.8
20190922141207 65 180 4.0 4.0 0.00 0.00 0.00 74 999.8
20190922140707 66 180 4.0 9.0 0.00 0.00 0.00 73 999.8
20190922140207 66 180 4.0 9.0 0.00 0.00 0.00 72 999.8
20190922135707 66 112 9.0 9.0 0.00 0.00 0.00 72 999.8
20190922135207 66 112 9.0 9.0 0.00 0.00 0.00 72 999.8
20190922134709 66 135 7.0 9.0 0.00 0.00 0.00 72 999.8
20190922134208 66 158 4.0 8.0 0.00 0.00 0.00 73 999.8
20190922133707 66 180 5.0 6.0 0.00 0.00 0.00 74 999.8
20190922133207 66 135 4.0 6.0 0.00 0.00 0.00 74 999.8
20190922132707 66 202 6.0 6.0 0.00 0.00 0.00 75 999.8
20190922132208 66 135 4.0 6.0 0.00 0.00 0.00 75 999.8
20190922131708 66 112 3.0 6.0 0.00 0.00 0.00 76 999.8
20190922131207 66 202 3.0 6.0 0.00 0.00 0.00 76 999.8
20190922130706 66 112 6.0 6.0 0.00 0.00 0.00 79 999.8
20190922130209 66 202 3.0 6.0 0.00 0.00 0.00 79 999.8
20190922125707 66 158 2.0 6.0 0.00 0.00 0.00 80 999.8
20190922125211 66 225 5.0 8.0 0.00 0.00 0.00 80 999.8
20190922124707 66 225 5.0 8.0 0.00 0.00 0.00 80 998.8
20190922124209 66 202 6.0 8.0 0.00 0.00 0.00 80 998.8
20190922123707 66 180 8.0 8.0 0.00 0.00 0.00 83 998.8
20190922123208 66 135 4.0 8.0 0.00 0.00 0.00 83 998.8
20190922122707 66 180 3.0 8.0 0.00 0.00 0.00 82 998.8
20190922122219 65 202 3.0 6.0 0.00 0.00 0.00 83 998.8
20190922121718 65 0.0 0.0 0.00 0.00 0.00 84 999.8
20190922121208 65 0.0 0.0 0.00 0.00 0.00 84 999.8
20190922120708 65 0.0 0.0 0.00 0.00 0.00 84 999.8
20190922120212 65 0.0 0.0 0.00 0.00 0.00 87 998.8
20190922115709 65 0.0 0.0 0.00 0.00 0.00 89 998.8
20190922115207 65 135 1.0 0.0 0.00 0.00 0.00 89 998.8
20190922114708 65 135 1.0 0.0 0.00 0.00 0.00 89 999.8
20190922114216 64 135 1.0 0.0 0.00 0.00 0.00 89 999.8
20190922113707 64 135 1.0 0.0 0.00 0.00 0.00 90 999.8
20190922113208 64 135 1.0 0.0 0.00 0.00 0.00 91 998.8
20190922112707 64 135 1.0 0.0 0.00 0.00 0.00 92 998.8
20190922112209 64 135 1.0 0.0 0.00 0.00 0.00 92 998.8
20190922111721 64 135 1.0 0.0 0.00 0.00 0.00 92 998.8
20190922111207 64 135 1.0 0.0 0.00 0.00 0.00 92 998.8
20190922110707 64 135 1.0 1.0 0.00 0.00 0.00 92 998.8
20190922110214 64 135 1.0 1.0 0.00 0.00 0.00 94 998.8
20190922105710 64 135 1.0 1.0 0.00 0.00 0.00 95 998.8
20190922105207 64 135 1.0 1.0 0.00 0.00 0.00 95 998.8
20190922104709 61 135 1.0 3.0 0.00 0.00 0.00 95 998.8
20190922104219 61 158 1.0 5.0 0.00 0.00 0.00 95 998.8
20190922103710 61 158 3.0 5.0 0.00 0.00 0.00 95 998.8
20190922103207 61 158 3.0 5.0 0.00 0.00 0.00 95 998.8
20190922102710 61 158 0.0 4.0 0.00 0.00 0.00 95 998.8
20190922102209 61 158 4.0 3.0 0.00 0.00 0.00 95 998.8
20190922101707 61 202 1.0 3.0 0.00 0.00 0.00 95 998.8
20190922101207 61 135 1.0 3.0 0.00 0.00 0.00 95 998.8
20190922100714 61 158 3.0 4.0 0.00 0.00 0.00 95 998.8
20190922100208 61 158 0.0 4.0 0.00 0.00 0.00 95 999.8
20190922095710 61 135 0.0 4.0 0.00 0.00 0.00 95 999.8
20190922095207 61 135 0.0 3.0 0.00 0.00 0.00 95 999.8
20190922094711 61 158 1.0 3.0 0.00 0.00 0.00 95 998.8
20190922094208 61 135 3.0 3.0 0.00 0.00 0.00 95 998.8
20190922093707 61 180 0.0 3.0 0.00 0.00 0.00 94 998.8
20190922093225 61 248 3.0 0.0 0.00 0.00 0.00 94 999.8
20190922092707 61 180 0.0 0.0 0.00 0.00 0.00 94 999.8
20190922092209 61 180 0.0 0.0 0.00 0.00 0.00 94 999.8
20190922091717 61 158 0.0 0.0 0.00 0.00 0.00 94 998.8
20190922091207 61 158 0.0 0.0 0.00 0.00 0.00 95 998.8
20190922090708 61 135 0.0 0.0 0.00 0.00 0.00 95 998.8
20190922090220 61 135 0.0 0.0 0.00 0.00 0.00 95 998.8
20190922085708 60 202 0.0 0.0 0.00 0.00 0.00 95 998.8
20190922085207 60 202 0.0 0.0 0.00 0.00 0.00 95 998.8
20190922084708 60 112 0.0 0.0 0.00 0.00 0.00 94 998.8
20190922084228 60 158 0.0 0.0 0.00 0.00 0.00 94 998.8
20190922083718 60 158 0.0 0.0 0.00 0.00 0.00 94 998.8
20190922083207 60 135 0.0 0.0 0.00 0.00 0.00 95 998.8
20190922082710 60 135 0.0 0.0 0.00 0.00 0.00 95 998.8
20190922082208 61 135 0.0 0.0 0.00 0.00 0.00 95 998.8
20190922081728 61 112 0.0 0.0 0.00 0.00 0.00 95 998.8
20190922081207 61 135 0.0 0.0 0.00 0.00 0.00 95 998.8
20190922080707 61 158 0.0 0.0 0.00 0.00 0.00 95 998.8
20190922080208 61 158 0.0 0.0 0.00 0.00 0.00 95 998.8
20190922075707 61 135 0.0 0.0 0.00 0.00 0.00 95 998.8
20190922075207 61 135 0.0 0.0 0.00 0.00 0.00 95 998.8
20190922074714 61 135 0.0 0.0 0.00 0.00 0.00 94 998.8
20190922074210 61 135 0.0 0.0 0.00 0.00 0.00 94 998.8
20190922073708 61 135 0.0 0.0 0.00 0.00 0.00 94 998.8
20190922073207 61 158 0.0 0.0 0.00 0.00 0.00 94 998.8
20190922072708 61 180 0.0 0.0 0.00 0.00 0.00 94 998.8
20190922072214 61 180 0.0 0.0 0.00 0.00 0.00 94 998.8
20190922071717 61 135 0.0 0.0 0.00 0.00 0.00 94 998.8
20190922071208 61 158 0.0 0.0 0.00 0.00 0.00 92 998.8
20190922070707 61 180 0.0 0.0 0.00 0.00 0.00 92 998.8
20190922070208 62 158 0.0 0.0 0.00 0.00 0.00 94 998.8
20190922065725 62 158 0.0 1.0 0.00 0.00 0.00 94 998.8
20190922065207 62 180 0.0 3.0 0.00 0.00 0.00 94 998.8
20190922064716 62 180 1.0 3.0 0.00 0.00 0.00 95 998.8
20190922064208 62 135 0.0 3.0 0.00 0.00 0.00 95 998.8
20190922063708 62 202 0.0 0.0 0.00 0.00 0.00 95 998.8
20190922063207 62 180 0.0 2.0 0.00 0.00 0.00 95 997.7
20190922062717 62 180 0.0 2.0 0.00 0.00 0.00 95 997.7
20190922062205 62 180 0.0 2.0 0.00 0.00 0.00 95 997.7
20190922061708 62 158 0.0 2.0 0.00 0.00 0.00 95 998.8
20190922061215 62 135 0.0 2.0 0.00 0.00 0.00 95 998.8
20190922060707 62 158 2.0 2.0 0.00 0.00 0.00 95 998.8
20190922060228 62 180 0.0 0.0 0.00 0.00 0.00 95 997.7
20190922055728 62 158 0.0 2.0 0.00 0.00 0.00 94 997.7
20190922055207 62 158 0.0 2.0 0.00 0.00 0.00 94 997.7
20190922054709 62 135 2.0 2.0 0.00 0.00 0.00 94 997.7
20190922054220 62 180 0.0 0.0 0.00 0.00 0.00 94 997.7
20190922053707 62 135 0.0 0.0 0.00 0.00 0.00 94 997.7
20190922053212 62 158 0.0 0.0 0.00 0.00 0.00 94 997.7
20190922052707 62 158 0.0 0.0 0.00 0.00 0.00 94 997.7
20190922052208 62 135 0.0 0.0 0.00 0.00 0.00 94 997.7
20190922051708 62 180 0.0 0.0 0.00 0.00 0.00 94 997.7
20190922051208 62 180 0.0 0.0 0.00 0.00 0.00 94 997.7
20190922050707 62 180 0.0 0.0 0.00 0.00 0.00 94 997.7
20190922050209 61 180 0.0 0.0 0.00 0.00 0.00 92 997.7
20190922045707 61 180 0.0 0.0 0.00 0.00 0.00 92 997.7
20190922045208 61 292 0.0 0.0 0.00 0.00 0.00 92 997.7
20190922044707 61 292 0.0 0.0 0.00 0.00 0.00 92 997.7
20190922044218 61 292 0.0 0.0 0.00 0.00 0.00 92 997.7
20190922043707 61 292 0.0 0.0 0.00 0.00 0.00 92 997.7
20190922043207 62 292 0.0 0.0 0.00 0.00 0.00 91 997.7
20190922042707 62 292 0.0 0.0 0.00 0.00 0.00 91 997.7
20190922042208 62 292 0.0 0.0 0.00 0.00 0.00 91 997.7
20190922041708 62 292 0.0 0.0 0.00 0.00 0.00 92 997.7
20190922041208 62 292 0.0 0.0 0.00 0.00 0.00 92 997.7
20190922040707 62 292 0.0 0.0 0.00 0.00 0.00 91 997.7
20190922040214 62 202 0.0 0.0 0.00 0.00 0.00 91 998.8
20190922035708 62 202 0.0 0.0 0.00 0.00 0.00 91 998.8
20190922035209 62 315 0.0 0.0 0.00 0.00 0.00 91 998.8
20190922034712 62 315 0.0 0.0 0.00 0.00 0.00 91 998.8
20190922034208 62 315 0.0 0.0 0.00 0.00 0.00 91 998.8
20190922033709 62 338 0.0 0.0 0.00 0.00 0.00 91 998.8
20190922033217 62 338 0.0 0.0 0.00 0.00 0.00 91 998.8
20190922032707 62 338 0.0 1.0 0.00 0.00 0.00 91 998.8
20190922032208 62 315 0.0 1.0 0.00 0.00 0.00 91 998.8
20190922031712 63 315 0.0 1.0 0.00 0.00 0.00 90 998.8
20190922031207 63 315 0.0 0.0 0.00 0.00 0.00 90 998.8
20190922030709 63 45 0.0 0.0 0.00 0.00 0.00 90 998.8
20190922030209 63 45 0.0 0.0 0.00 0.00 0.00 90 998.8
20190922025708 63 45 0.0 0.0 0.00 0.00 0.00 89 998.8
20190922025207 63 338 0.0 0.0 0.00 0.00 0.00 89 998.8
20190922024708 63 338 0.0 0.0 0.00 0.00 0.00 89 998.8
20190922024208 62 45 0.0 0.0 0.00 0.00 0.00 89 998.8
20190922023707 62 45 0.0 0.0 0.00 0.00 0.00 89 998.8
20190922023209 62 0 0.0 0.0 0.00 0.00 0.00 89 998.8
20190922022709 63 68 0.0 0.0 0.00 0.00 0.00 88 998.8
20190922022211 63 158 0.0 0.0 0.00 0.00 0.00 88 998.8
20190922021711 63 158 0.0 0.0 0.00 0.00 0.00 88 999.8
20190922021211 63 0.0 0.0 0.00 0.00 0.00 88 999.8
20190922020733 63 0.0 0.0 0.00 0.00 0.00 88 999.8
20190922015707 63 135 0.0 3.0 0.00 0.00 0.00 86 999.8
20190922015207 63 158 0.0 3.0 0.00 0.00 0.00 86 999.8
20190922014708 63 135 1.0 2.0 0.00 0.00 0.00 86 999.8
20190922014205 63 158 2.0 2.0 0.00 0.00 0.00 86 999.8
20190922013707 62 202 1.0 2.0 0.00 0.00 0.00 86 999.8
20190922013213 62 112 1.0 2.0 0.00 0.00 0.00 84 1000.8
20190922012707 62 135 0.0 2.0 0.00 0.00 0.00 83 1000.8
20190922012209 62 90 2.0 0.0 0.00 0.00 0.00 82 1000.8
20190922011707 62 180 0.0 0.0 0.00 0.00 0.00 82 999.8
20190922011208 62 180 0.0 0.0 0.00 0.00 0.00 82 999.8
20190922010707 62 270 0.0 2.0 0.00 0.00 0.00 81 999.8
20190922010210 62 270 0.0 2.0 0.00 0.00 0.00 81 999.8
20190922005707 62 292 0.0 2.0 0.00 0.00 0.00 80 999.8
20190922005207 62 292 2.0 2.0 0.00 0.00 0.00 79 999.8
20190922004707 62 292 2.0 0.0 0.00 0.00 0.00 79 999.8
20190922004208 63 292 0.0 0.0 0.00 0.00 0.00 76 999.8
20190922003711 63 292 0.0 0.0 0.00 0.00 0.00 76 999.8
20190922003207 63 292 0.0 0.0 0.00 0.00 0.00 75 999.8
20190922002706 63 292 0.0 0.0 0.00 0.00 0.00 72 999.8
20190922002208 63 292 0.0 0.0 0.00 0.00 0.00 72 999.8
20190922001708 63 292 0.0 0.0 0.00 0.00 0.00 72 1000.8
20190922001208 63 315 0.0 0.0 0.00 0.00 0.00 72 1000.8
20190922000708 63 315 0.0 0.0 0.00 0.00 0.00 72 999.8
20190922000208 63 315 0.0 0.0 0.00 0.00 0.00 72 999.8
20190921235736 63 315 0.0 0.0 0.00 0.00 0.00 72 999.8
20190921235207 63 315 0.0 0.0 0.00 0.00 0.00 71 999.8
20190921234710 63 315 0.0 0.0 0.00 0.00 0.00 71 1000.8
20190921234208 63 315 0.0 0.0 0.00 0.00 0.00 71 1000.8
20190921233707 63 315 0.0 0.0 0.00 0.00 0.00 70 1000.8
20190921233207 63 315 0.0 0.0 0.00 0.00 0.00 70 1000.8
20190921232707 63 315 0.0 0.0 0.00 0.00 0.00 70 1000.8
20190921232215 63 315 0.0 0.0 0.00 0.00 0.00 69 1000.8
20190921231735 63 338 0.0 0.0 0.00 0.00 0.00 69 1000.8
20190921231207 63 338 0.0 0.0 0.00 0.00 0.00 69 1000.8
20190921230707 63 338 0.0 0.0 0.00 0.00 0.00 69 1000.8
20190921230210 63 338 0.0 0.0 0.00 0.00 0.00 69 1000.8
20190921225707 63 338 0.0 0.0 0.00 0.00 0.00 69 1000.8
20190921225209 63 338 0.0 0.0 0.00 0.00 0.00 69 1000.8
20190921224708 63 45 0.0 0.0 0.00 0.00 0.00 68 1000.8
20190921224211 63 45 0.0 0.0 0.00 0.00 0.00 68 1000.8
20190921223711 63 45 0.0 0.0 0.00 0.00 0.00 68 1000.8
20190921223210 63 45 0.0 0.0 0.00 0.00 0.00 68 1001.8
20190921222707 63 45 0.0 0.0 0.00 0.00 0.00 68 1001.8
20190921222208 63 45 0.0 0.0 0.00 0.00 0.00 68 1001.8
20190921221708 63 45 0.0 0.0 0.00 0.00 0.00 68 1001.8
20190921221208 63 45 0.0 0.0 0.00 0.00 0.00 68 1001.8
20190921220707 63 45 0.0 0.0 0.00 0.00 0.00 67 1001.8
20190921220208 63 45 0.0 0.0 0.00 0.00 0.00 67 1002.8
20190921215708 64 45 0.0 0.0 0.00 0.00 0.00 66 1002.8
20190921215207 64 68 0.0 0.0 0.00 0.00 0.00 66 1002.8
20190921214708 64 292 0.0 0.0 0.00 0.00 0.00 66 1001.8
20190921214208 64 292 0.0 0.0 0.00 0.00 0.00 66 1001.8
20190921213708 64 292 0.0 0.0 0.00 0.00 0.00 65 1001.8
20190921213206 64 135 0.0 0.0 0.00 0.00 0.00 65 1001.8
20190921212707 64 180 0.0 0.0 0.00 0.00 0.00 64 1001.8
20190921212208 64 112 0.0 0.0 0.00 0.00 0.00 64 1001.8
20190921211709 64 112 0.0 0.0 0.00 0.00 0.00 64 1002.8
20190921211207 64 90 0.0 0.0 0.00 0.00 0.00 64 1002.8
20190921210707 64 135 0.0 0.0 0.00 0.00 0.00 64 1002.8
20190921210208 64 158 0.0 2.0 0.00 0.00 0.00 64 1001.8
20190921205716 64 158 0.0 2.0 0.00 0.00 0.00 63 1001.8
20190921205207 64 158 0.0 2.0 0.00 0.00 0.00 63 1001.8
20190921204722 64 158 0.0 4.0 0.00 0.00 0.00 63 1001.8
20190921204208 64 112 0.0 4.0 0.00 0.00 0.00 62 1001.8
20190921203711 64 248 0.0 4.0 0.00 0.00 0.00 62 1001.8
20190921203208 64 225 4.0 4.0 0.00 0.00 0.00 62 1001.8
20190921202707 64 158 0.0 2.0 0.00 0.00 0.00 62 1001.8
20190921202208 64 90 1.0 2.0 0.00 0.00 0.00 62 1001.8
20190921201709 64 248 0.0 2.0 0.00 0.00 0.00 62 1002.8
20190921201210 64 248 0.0 0.0 0.00 0.00 0.00 62 1002.8
20190921200718 64 248 0.0 0.0 0.00 0.00 0.00 61 1002.8
20190921200216 64 158 0.0 0.0 0.00 0.00 0.00 61 1002.8
20190921195709 64 135 0.0 0.0 0.00 0.00 0.00 61 1002.8
20190921195207 64 112 0.0 0.0 0.00 0.00 0.00 61 1002.8
20190921194708 64 0 0.0 0.0 0.00 0.00 0.00 61 1002.8
20190921194208 65 22 0.0 0.0 0.00 0.00 0.00 61 1002.8
20190921193731 65 292 0.0 1.0 0.00 0.00 0.00 61 1002.8
20190921193208 65 338 0.0 1.0 0.00 0.00 0.00 61 1002.8
20190921192707 65 45 0.0 1.0 0.00 0.00 0.00 61 1002.8
20190921192208 65 45 0.0 1.0 0.00 0.00 0.00 61 1002.8
20190921191736 65 135 0.0 1.0 0.00 0.00 0.00 61 1002.8
20190921191211 65 135 0.0 2.0 0.00 0.00 0.00 61 1002.8
20190921190707 65 225 0.0 2.0 0.00 0.00 0.00 61 1002.8
20190921190213 65 158 0.0 3.0 0.00 0.00 0.00 61 1002.8
20190921185712 65 112 0.0 3.0 0.00 0.00 0.00 61 1002.8
20190921185207 66 202 0.0 3.0 0.00 0.00 0.00 61 1002.8
20190921184708 66 135 3.0 4.0 0.00 0.00 0.00 61 1002.8
20190921184209 66 158 1.0 4.0 0.00 0.00 0.00 61 1002.8
20190921183706 66 135 3.0 4.0 0.00 0.00 0.00 61 1002.8
20190921183218 66 158 0.0 2.0 0.00 0.00 0.00 60 1002.8
20190921182706 66 158 2.0 2.0 0.00 0.00 0.00 60 1002.8
20190921182209 66 112 2.0 3.0 0.00 0.00 0.00 60 1002.8
20190921181722 67 112 1.0 3.0 0.00 0.00 0.00 60 1002.8
20190921181213 68 135 0.0 3.0 0.00 0.00 0.00 59 1002.8
20190921180707 68 180 2.0 3.0 0.00 0.00 0.00 59 1002.8
20190921180227 68 135 3.0 3.0 0.00 0.00 0.00 59 1002.8
20190921175707 68 158 1.0 4.0 0.00 0.00 0.00 59 1002.8
20190921175207 68 158 1.0 4.0 0.00 0.00 0.00 59 1002.8
20190921174707 68 158 2.0 4.0 0.00 0.00 0.00 59 1002.8
20190921174208 68 158 4.0 4.0 0.00 0.00 0.00 58 1002.8
20190921173707 68 112 4.0 4.0 0.00 0.00 0.00 58 1002.8
20190921173208 69 112 4.0 3.0 0.00 0.00 0.00 58 1002.8
20190921172708 69 135 2.0 4.0 0.00 0.00 0.00 57 1002.8
20190921172208 69 90 3.0 4.0 0.00 0.00 0.00 57 1002.8
20190921171708 69 158 0.0 4.0 0.00 0.00 0.00 57 1002.8
20190921171205 70 135 2.0 5.0 0.00 0.00 0.00 57 1002.8
20190921170718 70 225 0.0 5.0 0.00 0.00 0.00 56 1002.8
20190921170208 70 338 0.0 5.0 0.00 0.00 0.00 56 1002.8
20190921165707 71 135 5.0 5.0 0.00 0.00 0.00 56 1002.8
20190921165208 71 180 0.0 3.0 0.00 0.00 0.00 55 1002.8
20190921164708 71 135 2.0 3.0 0.00 0.00 0.00 55 1002.8
20190921164216 71 135 3.0 10.0 0.00 0.00 0.00 55 1002.8
20190921163711 72 270 3.0 10.0 0.00 0.00 0.00 54 1002.8
20190921163213 72 270 3.0 10.0 0.00 0.00 0.00 54 1003.8
20190921162706 73 135 10.0 10.0 0.00 0.00 0.00 53 1003.8
20190921162209 73 248 2.0 6.0 0.00 0.00 0.00 53 1003.8
20190921161711 73 248 2.0 6.0 0.00 0.00 0.00 53 1002.8
20190921161207 73 112 3.0 6.0 0.00 0.00 0.00 53 1002.8
20190921160707 73 135 6.0 6.0 0.00 0.00 0.00 53 1002.8
20190921160208 73 135 6.0 5.0 0.00 0.00 0.00 53 1003.8
20190921155718 73 158 5.0 5.0 0.00 0.00 0.00 53 1003.8
20190921155207 73 158 5.0 4.0 0.00 0.00 0.00 53 1003.8
20190921154708 73 158 4.0 6.0 0.00 0.00 0.00 52 1003.8
20190921154208 73 158 4.0 6.0 0.00 0.00 0.00 52 1003.8
20190921153709 73 112 6.0 6.0 0.00 0.00 0.00 52 1003.8
20190921153211 73 315 0.0 4.0 0.00 0.00 0.00 52 1003.8
20190921152707 73 112 2.0 4.0 0.00 0.00 0.00 52 1003.8
20190921152208 73 135 2.0 6.0 0.00 0.00 0.00 52 1003.8
20190921151727 73 158 3.0 7.0 0.00 0.00 0.00 52 1003.8
20190921151209 73 135 1.0 7.0 0.00 0.00 0.00 51 1003.8
20190921150707 73 180 6.0 9.0 0.00 0.00 0.00 51 1003.8
20190921150208 73 158 5.0 9.0 0.00 0.00 0.00 51 1003.8
20190921145707 74 90 9.0 9.0 0.00 0.00 0.00 51 1003.8
20190921145208 74 158 6.0 7.0 0.00 0.00 0.00 51 1003.8
20190921144707 74 158 6.0 7.0 0.00 0.00 0.00 51 1003.8
20190921144211 74 158 7.0 7.0 0.00 0.00 0.00 51 1003.8
20190921143707 74 158 3.0 7.0 0.00 0.00 0.00 51 1003.8
20190921143207 74 112 4.0 10.0 0.00 0.00 0.00 50 1003.8
20190921142707 74 135 7.0 10.0 0.00 0.00 0.00 50 1003.8
20190921142213 74 112 6.0 10.0 0.00 0.00 0.00 50 1003.8